createdAt,value
2019-05-03T00:01:12.812Z,77.70
2019-05-03T00:02:12.287Z,77.51
2019-05-03T00:04:03.899Z,77.51
2019-05-03T00:05:03.782Z,77.46
2019-05-03T00:06:56.699Z,77.42
2019-05-03T00:07:56.579Z,77.51
2019-05-03T00:09:49.382Z,77.61
2019-05-03T00:10:49.264Z,77.23
2019-05-03T00:12:42.260Z,77.70
2019-05-03T00:13:42.062Z,77.51
2019-05-03T00:15:34.867Z,77.42
2019-05-03T00:16:34.747Z,77.70
2019-05-03T00:18:27.548Z,77.80
2019-05-03T00:19:27.552Z,77.70
2019-05-03T00:21:21.943Z,77.61
2019-05-03T00:22:21.707Z,77.90
2019-05-03T00:24:13.147Z,77.61
2019-05-03T00:25:13.027Z,77.90
2019-05-03T00:27:05.830Z,77.51
2019-05-03T00:28:05.712Z,77.51
2019-05-03T00:29:58.630Z,77.42
2019-05-03T00:30:58.511Z,77.90
2019-05-03T00:32:52.133Z,77.70
2019-05-03T00:33:51.725Z,77.90
2019-05-03T00:35:43.997Z,77.70
2019-05-03T00:36:43.994Z,77.70
2019-05-03T00:38:36.798Z,77.80
2019-05-03T00:39:36.678Z,77.70
2019-05-03T00:41:29.480Z,77.90
2019-05-03T00:42:29.481Z,77.90
2019-05-03T00:44:22.296Z,77.90
2019-05-03T00:45:22.181Z,77.99
2019-05-03T00:47:14.966Z,77.61
2019-05-03T00:48:14.959Z,77.61
2019-05-03T00:50:07.764Z,77.90
2019-05-03T00:51:07.643Z,77.70
2019-05-03T00:53:02.153Z,77.61
2019-05-03T00:54:02.045Z,77.61
2019-05-03T00:55:53.245Z,77.80
2019-05-03T00:56:53.127Z,77.99
2019-05-03T00:58:46.045Z,78.19
2019-05-03T00:59:45.926Z,77.80
2019-05-03T01:01:38.729Z,77.80
2019-05-03T01:02:38.612Z,77.90
2019-05-03T01:04:31.810Z,78.28
2019-05-03T01:05:33.165Z,78.09
2019-05-03T01:07:24.213Z,77.70
2019-05-03T01:08:24.102Z,77.90
2019-05-03T01:10:16.894Z,77.80
2019-05-03T01:11:16.890Z,77.70
2019-05-03T01:13:09.698Z,77.90
2019-05-03T01:14:09.576Z,77.90
2019-05-03T01:16:02.863Z,77.90
2019-05-03T01:17:02.682Z,77.90
2019-05-03T01:18:55.177Z,77.90
2019-05-03T01:19:55.059Z,77.80
2019-05-03T01:21:47.859Z,78.38
2019-05-03T01:22:47.856Z,78.09
2019-05-03T01:24:42.686Z,77.90
2019-05-03T01:25:42.734Z,78.19
2019-05-03T01:27:33.342Z,77.99
2019-05-03T01:28:33.343Z,78.19
2019-05-03T01:30:26.144Z,78.28
2019-05-03T01:31:26.027Z,78.19
2019-05-03T01:33:18.825Z,78.38
2019-05-03T01:34:18.827Z,78.28
2019-05-03T01:36:12.088Z,78.19
2019-05-03T01:37:11.907Z,78.19
2019-05-03T01:39:04.927Z,78.19
2019-05-03T01:40:04.430Z,78.28
2019-05-03T01:41:57.346Z,78.28
2019-05-03T01:42:57.225Z,78.28
2019-05-03T01:44:52.066Z,78.38
2019-05-03T01:45:51.757Z,78.38
2019-05-03T01:47:42.832Z,78.57
2019-05-03T01:48:42.712Z,78.38
2019-05-03T01:50:35.630Z,77.99
2019-05-03T01:51:35.510Z,78.86
2019-05-03T01:53:28.320Z,78.57
2019-05-03T01:54:28.195Z,78.76
2019-05-03T01:56:22.331Z,78.47
2019-05-03T01:57:22.076Z,78.28
2019-05-03T01:59:13.798Z,77.99
2019-05-03T02:00:13.684Z,77.80
2019-05-03T02:02:07.421Z,78.19
2019-05-03T02:03:06.477Z,77.80
2019-05-03T02:04:59.278Z,78.38
2019-05-03T02:05:59.160Z,77.99
2019-05-03T02:07:52.078Z,77.99
2019-05-03T02:08:52.242Z,77.99
2019-05-03T02:10:44.762Z,77.90
2019-05-03T02:11:44.643Z,77.99
2019-05-03T02:13:37.561Z,77.99
2019-05-03T02:14:37.443Z,78.09
2019-05-03T02:16:32.390Z,78.76
2019-05-03T02:17:31.845Z,78.86
2019-05-03T02:19:22.927Z,78.76
2019-05-03T02:20:22.924Z,78.66
2019-05-03T02:22:15.732Z,78.86
2019-05-03T02:23:15.608Z,78.86
2019-05-03T02:25:08.410Z,78.66
2019-05-03T02:26:08.406Z,78.63
2019-05-03T02:28:01.945Z,78.72
2019-05-03T02:29:01.848Z,78.66
2019-05-03T02:30:54.011Z,78.76
2019-05-03T02:31:53.890Z,78.86
2019-05-03T02:33:46.692Z,78.76
2019-05-03T02:34:46.576Z,78.76
2019-05-03T02:36:39.493Z,78.76
2019-05-03T02:37:39.373Z,78.86
2019-05-03T02:39:33.530Z,78.66
2019-05-03T02:40:33.881Z,78.76
2019-05-03T02:42:26.554Z,78.76
2019-05-03T02:43:26.088Z,78.95
2019-05-03T02:45:17.663Z,78.86
2019-05-03T02:46:17.543Z,78.95
2019-05-03T02:48:10.341Z,78.86
2019-05-03T02:49:10.346Z,78.76
2019-05-03T02:51:03.150Z,78.66
2019-05-03T02:52:06.358Z,78.76
2019-05-03T02:53:57.132Z,78.86
2019-05-03T02:54:55.823Z,78.86
2019-05-03T02:56:48.625Z,79.05
2019-05-03T02:57:48.510Z,79.24
2019-05-03T02:59:41.425Z,78.95
2019-05-03T03:00:41.308Z,79.14
2019-05-03T03:02:36.512Z,78.95
2019-05-03T03:03:36.314Z,79.14
2019-05-03T03:05:26.790Z,79.10
2019-05-03T03:06:27.065Z,79.14
2019-05-03T03:08:19.596Z,78.95
2019-05-03T03:09:19.483Z,78.91
2019-05-03T03:11:12.275Z,78.91
2019-05-03T03:12:15.110Z,79.14
2019-05-03T03:14:08.190Z,78.91
2019-05-03T03:15:06.172Z,79.00
2019-05-03T03:16:57.755Z,79.10
2019-05-03T03:17:57.753Z,78.86
2019-05-03T03:19:50.557Z,78.81
2019-05-03T03:20:50.437Z,78.72
2019-05-03T03:22:45.615Z,78.81
2019-05-03T03:23:45.919Z,78.91
2019-05-03T03:25:36.272Z,78.95
2019-05-03T03:26:41.503Z,79.24
2019-05-03T03:28:28.838Z,78.81
2019-05-03T03:29:28.718Z,79.10
2019-05-03T03:31:21.539Z,79.43
2019-05-03T03:32:21.433Z,79.49
2019-05-03T03:34:18.239Z,79.29
2019-05-03T03:35:20.226Z,79.43
2019-05-03T03:37:10.235Z,79.33
2019-05-03T03:38:06.886Z,79.29
2019-05-03T03:39:59.804Z,79.49
2019-05-03T03:40:59.684Z,79.72
2019-05-03T03:42:52.491Z,79.39
2019-05-03T03:43:55.549Z,79.39
2019-05-03T03:45:45.637Z,79.49
2019-05-03T03:46:45.536Z,79.49
2019-05-03T03:48:37.971Z,79.00
2019-05-03T03:49:37.852Z,79.29
2019-05-03T03:51:30.769Z,79.10
2019-05-03T03:52:30.651Z,79.29
2019-05-03T03:54:26.048Z,79.10
2019-05-03T03:55:26.293Z,79.10
2019-05-03T03:57:16.375Z,79.10
2019-05-03T03:58:22.566Z,79.10
2019-05-03T04:00:09.174Z,79.29
2019-05-03T04:01:09.054Z,79.20
2019-05-03T04:03:01.859Z,79.20
2019-05-03T04:04:01.743Z,79.29
2019-05-03T04:05:55.484Z,79.10
2019-05-03T04:06:58.523Z,79.20
2019-05-03T04:08:47.339Z,79.20
2019-05-03T04:09:47.222Z,79.20
2019-05-03T04:11:40.138Z,78.91
2019-05-03T04:12:40.020Z,78.91
2019-05-03T04:14:32.823Z,79.20
2019-05-03T04:15:32.823Z,78.81
2019-05-03T04:17:26.308Z,79.10
2019-05-03T04:18:25.791Z,78.81
2019-05-03T04:20:18.424Z,79.10
2019-05-03T04:21:18.304Z,79.10
2019-05-03T04:23:11.109Z,78.91
2019-05-03T04:24:10.989Z,79.00
2019-05-03T04:26:06.805Z,79.00
2019-05-03T04:27:15.628Z,78.91
2019-05-03T04:28:56.593Z,78.81
2019-05-03T04:29:56.590Z,78.81
2019-05-03T04:31:49.392Z,78.81
2019-05-03T04:32:49.274Z,78.81
2019-05-03T04:34:42.073Z,78.81
2019-05-03T04:35:42.072Z,78.91
2019-05-03T04:37:35.945Z,79.10
2019-05-03T04:38:35.390Z,79.39
2019-05-03T04:40:27.555Z,79.39
2019-05-03T04:41:27.557Z,79.68
2019-05-03T04:43:20.358Z,79.58
2019-05-03T04:44:20.239Z,79.49
2019-05-03T04:46:13.040Z,79.29
2019-05-03T04:47:15.405Z,79.68
2019-05-03T04:49:05.948Z,79.58
2019-05-03T04:50:05.875Z,79.49
2019-05-03T04:51:58.639Z,79.58
2019-05-03T04:52:58.520Z,79.49
2019-05-03T04:54:51.328Z,79.49
2019-05-03T04:55:51.208Z,79.39
2019-05-03T04:57:46.862Z,79.49
2019-05-03T04:58:45.870Z,79.29
2019-05-03T05:00:36.804Z,79.58
2019-05-03T05:01:36.697Z,79.49
2019-05-03T05:03:29.605Z,79.39
2019-05-03T05:04:29.484Z,79.39
2019-05-03T05:06:22.289Z,79.39
2019-05-03T05:07:22.169Z,79.10
2019-05-03T05:09:15.526Z,79.39
2019-05-03T05:10:15.518Z,79.77
2019-05-03T05:12:07.772Z,79.49
2019-05-03T05:13:07.653Z,79.49
2019-05-03T05:15:00.572Z,79.58
2019-05-03T05:16:00.451Z,79.39
2019-05-03T05:17:56.100Z,79.58
2019-05-03T05:18:53.141Z,79.49
2019-05-03T05:20:46.053Z,79.29
2019-05-03T05:21:45.934Z,79.29
2019-05-03T05:23:38.737Z,79.39
2019-05-03T05:24:38.619Z,79.29
2019-05-03T05:26:31.536Z,79.49
2019-05-03T05:27:31.418Z,79.49
2019-05-03T05:29:25.352Z,79.29
2019-05-03T05:30:25.186Z,79.39
2019-05-03T05:32:17.021Z,79.20
2019-05-03T05:33:16.899Z,79.10
2019-05-03T05:35:09.702Z,79.96
2019-05-03T05:36:09.587Z,79.20
2019-05-03T05:38:04.560Z,79.87
2019-05-03T05:39:02.383Z,79.29
2019-05-03T05:40:55.584Z,79.20
2019-05-03T05:41:55.483Z,79.20
2019-05-03T05:43:47.867Z,79.20
2019-05-03T05:44:47.865Z,79.77
2019-05-03T05:46:40.669Z,79.77
2019-05-03T05:47:40.551Z,79.29
2019-05-03T05:49:35.108Z,79.29
2019-05-03T05:50:34.585Z,79.77
2019-05-03T05:52:26.387Z,79.49
2019-05-03T05:53:26.271Z,79.49
2019-05-03T05:55:19.073Z,79.87
2019-05-03T05:56:18.958Z,79.49
2019-05-03T05:58:11.877Z,79.77
2019-05-03T05:59:11.759Z,79.77
2019-05-03T06:01:05.525Z,79.68
2019-05-03T06:02:04.929Z,79.87
2019-05-03T06:03:57.355Z,79.96
2019-05-03T06:04:57.234Z,79.68
2019-05-03T06:06:50.038Z,79.68
2019-05-03T06:07:49.922Z,79.49
2019-05-03T06:09:44.736Z,79.49
2019-05-03T06:10:42.716Z,79.68
2019-05-03T06:12:35.521Z,79.39
2019-05-03T06:13:35.405Z,79.39
2019-05-03T06:15:28.319Z,79.96
2019-05-03T06:16:28.200Z,79.68
2019-05-03T06:18:21.002Z,79.68
2019-05-03T06:19:20.884Z,79.49
2019-05-03T06:21:14.868Z,79.49
2019-05-03T06:22:15.319Z,79.49
2019-05-03T06:24:06.485Z,79.68
2019-05-03T06:25:06.761Z,79.49
2019-05-03T06:26:59.768Z,79.77
2019-05-03T06:27:59.648Z,79.77
2019-05-03T06:28:59.646Z,79.49
2019-05-03T06:29:59.530Z,79.49
2019-05-03T06:30:59.528Z,79.49
2019-05-03T06:31:59.526Z,79.58
2019-05-03T06:32:59.409Z,79.96
2019-05-03T06:33:59.409Z,79.49
2019-05-03T06:34:59.291Z,79.58
2019-05-03T06:35:59.289Z,79.68
2019-05-03T06:36:59.174Z,79.87
2019-05-03T06:37:59.170Z,79.68
2019-05-03T06:38:59.054Z,79.49
2019-05-03T06:39:59.052Z,79.87
2019-05-03T06:40:58.935Z,79.96
2019-05-03T06:41:58.932Z,79.87
2019-05-03T06:43:08.676Z,79.87
2019-05-03T06:44:01.815Z,79.58
2019-05-03T06:44:59.714Z,79.68
2019-05-03T06:45:58.696Z,80.16
2019-05-03T06:47:01.205Z,79.49
2019-05-03T06:47:58.577Z,79.96
2019-05-03T06:49:01.031Z,79.58
2019-05-03T06:49:58.459Z,79.49
2019-05-03T06:51:00.266Z,79.49
2019-05-03T06:51:58.340Z,79.58
2019-05-03T06:52:59.953Z,79.20
2019-05-03T06:53:58.221Z,79.49
2019-05-03T06:55:00.418Z,79.49
2019-05-03T06:55:58.219Z,79.68
2019-05-03T06:57:00.132Z,79.29
2019-05-03T06:57:58.113Z,79.77
2019-05-03T06:58:57.983Z,79.96
2019-05-03T06:59:57.981Z,79.77
2019-05-03T07:00:57.864Z,79.49
2019-05-03T07:01:57.861Z,79.49
2019-05-03T07:02:57.779Z,79.10
2019-05-03T07:03:57.744Z,79.96
2019-05-03T07:04:57.628Z,79.29
2019-05-03T07:05:57.624Z,79.20
2019-05-03T07:06:57.509Z,79.20
2019-05-03T07:07:57.505Z,79.10
2019-05-03T07:08:57.506Z,79.29
2019-05-03T07:09:57.386Z,79.29
2019-05-03T07:10:57.457Z,79.29
2019-05-03T07:11:57.268Z,79.10
2019-05-03T07:12:57.268Z,79.10
2019-05-03T07:13:57.150Z,79.20
2019-05-03T07:14:57.149Z,80.06
2019-05-03T07:15:57.033Z,79.20
2019-05-03T07:16:57.029Z,79.20
2019-05-03T07:17:56.913Z,79.29
2019-05-03T07:18:58.612Z,79.20
2019-05-03T07:19:56.795Z,79.29
2019-05-03T07:20:57.123Z,79.87
2019-05-03T07:21:56.791Z,79.10
2019-05-03T07:22:56.674Z,79.20
2019-05-03T07:23:56.673Z,79.29
2019-05-03T07:24:56.556Z,79.20
2019-05-03T07:25:56.555Z,79.20
2019-05-03T07:26:59.017Z,79.20
2019-05-03T07:27:56.437Z,79.29
2019-05-03T07:28:56.320Z,79.20
2019-05-03T07:29:56.317Z,79.58
2019-05-03T07:30:56.200Z,79.83
2019-05-03T07:31:56.196Z,79.39
2019-05-03T07:32:56.080Z,79.29
2019-05-03T07:33:56.078Z,79.77
2019-05-03T07:34:56.078Z,79.96
2019-05-03T07:35:55.962Z,79.20
2019-05-03T07:36:55.959Z,79.39
2019-05-03T07:37:55.842Z,79.39
2019-05-03T07:38:55.840Z,79.20
2019-05-03T07:39:55.724Z,79.39
2019-05-03T07:40:55.720Z,79.49
2019-05-03T07:41:55.607Z,79.20
2019-05-03T07:42:55.746Z,79.49
2019-05-03T07:43:55.492Z,79.10
2019-05-03T07:44:55.960Z,79.39
2019-05-03T07:45:55.437Z,79.35
2019-05-03T07:46:55.562Z,79.39
2019-05-03T07:47:56.023Z,79.29
2019-05-03T07:48:55.247Z,79.39
2019-05-03T07:49:55.248Z,79.39
2019-05-03T07:50:55.150Z,79.49
2019-05-03T07:51:55.410Z,79.49
2019-05-03T07:52:55.788Z,79.10
2019-05-03T07:53:55.554Z,79.49
2019-05-03T07:54:55.199Z,79.49
2019-05-03T07:55:54.890Z,79.20
2019-05-03T07:56:54.937Z,79.39
2019-05-03T07:57:55.457Z,79.49
2019-05-03T07:59:02.607Z,79.25
2019-05-03T07:59:55.653Z,79.39
2019-05-03T08:01:05.821Z,79.29
2019-05-03T08:01:54.712Z,79.49
2019-05-03T08:02:55.021Z,79.39
2019-05-03T08:03:55.152Z,79.39
2019-05-03T08:04:54.898Z,79.35
2019-05-03T08:05:55.333Z,79.39
2019-05-03T08:06:54.928Z,79.20
2019-05-03T08:07:55.370Z,79.35
2019-05-03T08:08:54.568Z,79.39
2019-05-03T08:09:55.491Z,79.39
2019-05-03T08:10:54.962Z,79.39
2019-05-03T08:11:54.748Z,79.49
2019-05-03T08:12:54.448Z,79.54
2019-05-03T08:13:54.992Z,79.49
2019-05-03T08:14:55.233Z,79.58
2019-05-03T08:15:55.805Z,79.10
2019-05-03T08:16:54.749Z,79.06
2019-05-03T08:17:55.413Z,79.20
2019-05-03T08:18:55.621Z,78.81
2019-05-03T08:19:55.154Z,79.10
2019-05-03T08:20:55.399Z,78.91
2019-05-03T08:21:56.480Z,79.20
2019-05-03T08:22:54.704Z,79.20
2019-05-03T08:23:55.480Z,79.00
2019-05-03T08:24:55.315Z,79.16
2019-05-03T08:25:55.474Z,79.20
2019-05-03T08:26:53.228Z,79.20
2019-05-03T08:27:54.865Z,79.16
2019-05-03T08:28:54.478Z,79.00
2019-05-03T08:29:52.988Z,79.20
2019-05-03T08:30:54.339Z,79.10
2019-05-03T08:31:54.578Z,79.20
2019-05-03T08:32:54.818Z,79.20
2019-05-03T08:33:52.749Z,79.00
2019-05-03T08:34:52.747Z,79.39
2019-05-03T08:35:52.631Z,79.29
2019-05-03T08:36:54.366Z,78.81
2019-05-03T08:37:54.535Z,79.20
2019-05-03T08:38:52.513Z,79.49
2019-05-03T08:39:52.510Z,78.91
2019-05-03T08:40:52.392Z,79.20
2019-05-03T08:41:52.390Z,79.10
2019-05-03T08:42:52.274Z,79.29
2019-05-03T08:43:52.272Z,79.00
2019-05-03T08:44:52.157Z,79.10
2019-05-03T08:45:52.152Z,79.10
2019-05-03T08:46:52.072Z,78.91
2019-05-03T08:47:52.036Z,79.00
2019-05-03T08:49:06.798Z,79.20
2019-05-03T08:49:51.919Z,78.91
2019-05-03T08:50:51.915Z,78.63
2019-05-03T08:51:51.799Z,78.91
2019-05-03T08:52:51.797Z,79.10
2019-05-03T08:53:51.713Z,78.81
2019-05-03T08:54:51.677Z,78.72
2019-05-03T08:55:51.561Z,78.91
2019-05-03T08:56:51.558Z,78.72
2019-05-03T08:57:51.442Z,78.81
2019-05-03T08:58:51.439Z,78.63
2019-05-03T08:59:51.323Z,78.91
2019-05-03T09:00:51.320Z,78.81
2019-05-03T09:01:51.221Z,78.34
2019-05-03T09:02:51.202Z,78.05
2019-05-03T09:03:51.200Z,78.14
2019-05-03T09:04:51.083Z,78.24
2019-05-03T09:05:51.088Z,78.63
2019-05-03T09:06:50.967Z,78.14
2019-05-03T09:07:50.988Z,77.76
2019-05-03T09:08:54.224Z,78.24
2019-05-03T09:09:50.846Z,78.14
2019-05-03T09:10:50.728Z,77.76
2019-05-03T09:11:50.726Z,77.67
2019-05-03T09:12:50.610Z,77.86
2019-05-03T09:13:50.607Z,77.57
2019-05-03T09:14:50.496Z,77.76
2019-05-03T09:15:50.487Z,77.95
2019-05-03T09:16:50.516Z,77.86
2019-05-03T09:17:50.373Z,77.86
2019-05-03T09:18:50.368Z,77.86
2019-05-03T09:19:50.253Z,77.48
2019-05-03T09:20:50.254Z,77.48
2019-05-03T09:21:50.133Z,77.57
2019-05-03T09:22:50.131Z,77.09
2019-05-03T09:23:50.016Z,77.09
2019-05-03T09:24:50.012Z,77.00
2019-05-03T09:25:49.896Z,77.09
2019-05-03T09:26:49.894Z,77.00
2019-05-03T09:27:49.776Z,76.62
2019-05-03T09:28:49.775Z,77.00
2019-05-03T09:29:49.776Z,76.90
2019-05-03T09:30:49.658Z,77.00
2019-05-03T09:31:49.656Z,76.90
2019-05-03T09:32:49.540Z,77.09
2019-05-03T09:33:49.537Z,77.00
2019-05-03T09:34:49.420Z,77.00
2019-05-03T09:35:49.418Z,76.71
2019-05-03T09:36:49.301Z,76.52
2019-05-03T09:37:49.298Z,77.00
2019-05-03T09:38:49.184Z,76.71
2019-05-03T09:39:49.179Z,76.90
2019-05-03T09:40:51.864Z,76.90
2019-05-03T09:41:49.066Z,77.00
2019-05-03T09:42:49.060Z,76.90
2019-05-03T09:43:48.941Z,76.71
2019-05-03T09:44:48.999Z,77.09
2019-05-03T09:45:48.826Z,76.71
2019-05-03T09:46:48.823Z,76.71
2019-05-03T09:47:48.708Z,76.81
2019-05-03T09:48:48.705Z,77.00
2019-05-03T09:49:48.588Z,76.33
2019-05-03T09:50:48.584Z,76.52
2019-05-03T09:51:48.468Z,76.33
2019-05-03T09:52:48.477Z,76.23
2019-05-03T09:53:48.465Z,76.62
2019-05-03T09:54:48.351Z,76.04
2019-05-03T09:55:48.347Z,76.42
2019-05-03T09:56:55.945Z,76.33
2019-05-03T09:57:48.228Z,76.14
2019-05-03T09:58:48.114Z,76.04
2019-05-03T09:59:57.153Z,75.85
2019-05-03T10:00:47.996Z,76.14
2019-05-03T10:01:47.998Z,76.04
2019-05-03T10:02:47.899Z,75.95
2019-05-03T10:03:47.870Z,75.95
2019-05-03T10:04:47.754Z,76.04
2019-05-03T10:05:47.752Z,75.56
2019-05-03T10:06:47.752Z,75.37
2019-05-03T10:07:47.635Z,75.37
2019-05-03T10:08:47.637Z,75.47
2019-05-03T10:09:47.515Z,75.47
2019-05-03T10:10:47.516Z,75.27
2019-05-03T10:11:47.401Z,75.27
2019-05-03T10:12:47.399Z,75.27
2019-05-03T10:13:48.832Z,75.47
2019-05-03T10:14:47.281Z,74.99
2019-05-03T10:15:47.170Z,74.99
2019-05-03T10:16:47.160Z,74.80
2019-05-03T10:17:47.042Z,75.18
2019-05-03T10:18:47.039Z,75.18
2019-05-03T10:19:47.038Z,74.80
2019-05-03T10:20:46.920Z,74.90
2019-05-03T10:21:46.930Z,74.61
2019-05-03T10:22:46.801Z,74.90
2019-05-03T10:23:46.801Z,74.90
2019-05-03T10:24:46.683Z,74.99
2019-05-03T10:25:46.681Z,74.61
2019-05-03T10:26:46.565Z,72.79
2019-05-03T10:27:46.565Z,73.27
2019-05-03T10:28:46.448Z,73.36
2019-05-03T10:29:46.444Z,73.36
2019-05-03T10:30:46.327Z,72.41
2019-05-03T10:31:46.325Z,72.31
2019-05-03T10:32:46.328Z,72.31
2019-05-03T10:33:46.208Z,72.79
2019-05-03T10:34:46.206Z,72.18
2019-05-03T10:35:46.088Z,72.50
2019-05-03T10:36:46.088Z,72.75
2019-05-03T10:37:45.972Z,72.66
2019-05-03T10:38:46.273Z,73.27
2019-05-03T10:39:45.856Z,72.98
2019-05-03T10:40:45.849Z,72.75
2019-05-03T10:41:45.733Z,72.75
2019-05-03T10:42:45.729Z,72.98
2019-05-03T10:43:45.614Z,72.66
2019-05-03T10:44:45.612Z,72.79
2019-05-03T10:45:45.611Z,72.85
2019-05-03T10:46:45.492Z,72.94
2019-05-03T10:47:45.726Z,72.98
2019-05-03T10:48:45.471Z,73.17
2019-05-03T10:49:45.805Z,72.98
2019-05-03T10:50:45.257Z,72.88
2019-05-03T10:51:45.347Z,73.55
2019-05-03T10:52:45.138Z,73.17
2019-05-03T10:53:45.541Z,73.27
2019-05-03T10:54:45.925Z,73.08
2019-05-03T10:55:45.175Z,73.27
2019-05-03T10:56:45.327Z,73.46
2019-05-03T10:57:45.037Z,73.17
2019-05-03T10:58:45.273Z,73.65
2019-05-03T10:59:44.889Z,73.08
2019-05-03T11:00:52.218Z,73.75
2019-05-03T11:01:45.250Z,73.27
2019-05-03T11:02:45.297Z,73.84
2019-05-03T11:03:45.138Z,73.55
2019-05-03T11:04:46.221Z,73.46
2019-05-03T11:05:45.449Z,73.75
2019-05-03T11:06:45.738Z,73.65
2019-05-03T11:07:45.111Z,73.75
2019-05-03T11:08:45.097Z,73.94
2019-05-03T11:09:49.825Z,73.65
2019-05-03T11:10:44.183Z,73.27
2019-05-03T11:11:45.321Z,73.17
2019-05-03T11:12:44.065Z,73.55
2019-05-03T11:13:44.069Z,73.36
2019-05-03T11:14:45.523Z,73.08
2019-05-03T11:15:44.401Z,73.17
2019-05-03T11:16:46.032Z,73.08
2019-05-03T11:17:45.478Z,73.55
2019-05-03T11:18:45.561Z,73.08
2019-05-03T11:19:45.434Z,72.79
2019-05-03T11:20:45.279Z,72.98
2019-05-03T11:21:45.342Z,72.98
2019-05-03T11:22:44.923Z,73.36
2019-05-03T11:23:45.032Z,72.79
2019-05-03T11:24:45.419Z,72.79
2019-05-03T11:25:45.025Z,72.50
2019-05-03T11:26:45.225Z,72.69
2019-05-03T11:27:44.717Z,72.60
2019-05-03T11:28:44.864Z,72.41
2019-05-03T11:29:45.040Z,72.60
2019-05-03T11:30:53.065Z,72.69
2019-05-03T11:31:44.559Z,72.60
2019-05-03T11:32:44.744Z,72.79
2019-05-03T11:33:42.879Z,72.79
2019-05-03T11:34:44.804Z,72.22
2019-05-03T11:35:44.544Z,72.02
2019-05-03T11:36:42.758Z,71.73
2019-05-03T11:37:42.757Z,71.73
2019-05-03T11:38:42.640Z,71.73
2019-05-03T11:39:42.638Z,71.83
2019-05-03T11:40:42.520Z,71.73
2019-05-03T11:41:42.518Z,71.83
2019-05-03T11:42:44.619Z,72.02
2019-05-03T11:43:44.296Z,71.64
2019-05-03T11:44:44.542Z,71.83
2019-05-03T11:45:42.279Z,71.83
2019-05-03T11:46:44.446Z,71.83
2019-05-03T11:47:42.161Z,71.45
2019-05-03T11:48:42.046Z,71.36
2019-05-03T11:49:42.044Z,71.45
2019-05-03T11:50:42.043Z,71.55
2019-05-03T11:51:41.926Z,71.55
2019-05-03T11:52:41.925Z,71.36
2019-05-03T11:53:41.811Z,71.64
2019-05-03T11:54:41.805Z,71.55
2019-05-03T11:55:41.689Z,71.45
2019-05-03T11:56:41.687Z,71.73
2019-05-03T11:57:41.582Z,71.07
2019-05-03T11:58:41.567Z,71.26
2019-05-03T11:59:41.469Z,71.83
2019-05-03T12:00:41.448Z,71.16
2019-05-03T12:01:41.332Z,71.16
2019-05-03T12:02:41.329Z,71.36
2019-05-03T12:03:41.331Z,71.73
2019-05-03T12:04:41.211Z,71.64
2019-05-03T12:05:41.210Z,71.73
2019-05-03T12:06:41.095Z,71.36
2019-05-03T12:07:41.091Z,71.73
2019-05-03T12:08:40.977Z,70.78
2019-05-03T12:09:40.973Z,70.87
2019-05-03T12:10:52.495Z,70.21
2019-05-03T12:11:40.853Z,70.59
2019-05-03T12:12:40.737Z,70.59
2019-05-03T12:13:40.735Z,70.21
2019-05-03T12:14:40.619Z,70.50
2019-05-03T12:15:40.615Z,70.50
2019-05-03T12:17:11.910Z,70.50
2019-05-03T12:17:50.732Z,70.59
2019-05-03T12:18:52.233Z,70.30
2019-05-03T12:19:41.522Z,70.50
2019-05-03T12:20:41.127Z,70.50
2019-05-03T12:21:40.977Z,70.50
2019-05-03T12:22:40.693Z,70.50
2019-05-03T12:23:40.911Z,70.01
2019-05-03T12:24:40.671Z,70.11
2019-05-03T12:25:40.737Z,70.21
2019-05-03T12:26:43.469Z,70.40
2019-05-03T12:27:39.904Z,70.11
2019-05-03T12:28:39.903Z,70.01
2019-05-03T12:29:39.905Z,69.64
2019-05-03T12:30:39.784Z,69.57
2019-05-03T12:31:40.649Z,69.06
2019-05-03T12:32:39.665Z,68.39
2019-05-03T12:33:39.664Z,68.96
2019-05-03T12:34:39.548Z,68.87
2019-05-03T12:35:39.546Z,68.96
2019-05-03T12:36:39.428Z,69.09
2019-05-03T12:37:39.426Z,68.58
2019-05-03T12:38:39.312Z,68.62
2019-05-03T12:39:39.307Z,68.04
2019-05-03T12:40:39.191Z,68.68
2019-05-03T12:41:39.188Z,68.39
2019-05-03T12:42:39.188Z,68.80
2019-05-03T12:43:39.070Z,68.96
2019-05-03T12:44:39.069Z,68.90
2019-05-03T12:45:38.951Z,68.10
2019-05-03T12:46:38.950Z,67.76
2019-05-03T12:47:38.844Z,67.27
2019-05-03T12:48:38.830Z,67.82
2019-05-03T12:49:38.717Z,68.29
2019-05-03T12:50:39.032Z,67.82
2019-05-03T12:51:38.595Z,67.27
2019-05-03T12:52:49.256Z,67.14
2019-05-03T12:53:38.479Z,67.47
2019-05-03T12:54:38.475Z,67.47
2019-05-03T12:55:38.474Z,67.27
2019-05-03T12:56:38.403Z,67.05
2019-05-03T12:57:38.356Z,67.53
2019-05-03T12:58:38.240Z,67.34
2019-05-03T12:59:38.236Z,66.96
2019-05-03T13:00:38.122Z,66.80
2019-05-03T13:01:41.676Z,66.86
2019-05-03T13:02:38.003Z,66.32
2019-05-03T13:03:37.998Z,66.22
2019-05-03T13:04:37.882Z,66.28
2019-05-03T13:05:37.880Z,65.94
2019-05-03T13:06:37.881Z,65.74
2019-05-03T13:07:37.761Z,66.38
2019-05-03T13:08:37.817Z,65.90
2019-05-03T13:09:37.643Z,65.90
2019-05-03T13:10:37.642Z,65.90
2019-05-03T13:11:37.527Z,65.90
2019-05-03T13:12:49.850Z,65.71
2019-05-03T13:13:37.407Z,65.33
2019-05-03T13:14:37.404Z,65.71
2019-05-03T13:15:37.287Z,65.74
2019-05-03T13:16:37.285Z,65.61
2019-05-03T13:17:37.177Z,65.81
2019-05-03T13:18:37.166Z,66.38
2019-05-03T13:19:37.167Z,66.28
2019-05-03T13:20:37.047Z,66.28
2019-05-03T13:21:37.047Z,66.51
2019-05-03T13:22:36.929Z,66.51
2019-05-03T13:23:36.929Z,66.47
2019-05-03T13:24:37.408Z,66.38
2019-05-03T13:25:36.817Z,66.67
2019-05-03T13:26:36.695Z,66.28
2019-05-03T13:27:36.694Z,66.76
2019-05-03T13:28:36.574Z,66.80
2019-05-03T13:29:36.571Z,66.57
2019-05-03T13:30:36.455Z,66.70
2019-05-03T13:31:36.453Z,66.38
2019-05-03T13:32:36.457Z,66.03
2019-05-03T13:33:36.335Z,66.00
2019-05-03T13:34:36.337Z,66.09
2019-05-03T13:35:36.216Z,66.61
2019-05-03T13:36:36.214Z,66.41
2019-05-03T13:37:36.102Z,66.41
2019-05-03T13:38:36.095Z,66.61
2019-05-03T13:39:36.153Z,66.32
2019-05-03T13:40:36.061Z,66.22
2019-05-03T13:41:35.859Z,66.13
2019-05-03T13:42:35.859Z,66.51
2019-05-03T13:43:35.742Z,66.13
2019-05-03T13:44:35.752Z,66.13
2019-05-03T13:45:35.746Z,66.41
2019-05-03T13:46:35.620Z,66.80
2019-05-03T13:47:35.620Z,66.32
2019-05-03T13:48:45.362Z,65.55
2019-05-03T13:49:35.617Z,65.84
2019-05-03T13:50:35.384Z,65.84
2019-05-03T13:51:35.778Z,66.32
2019-05-03T13:52:35.782Z,66.22
2019-05-03T13:53:35.262Z,65.55
2019-05-03T13:54:35.235Z,65.74
2019-05-03T13:55:35.381Z,65.84
2019-05-03T13:56:35.449Z,65.36
2019-05-03T13:57:35.473Z,65.71
2019-05-03T13:58:35.804Z,65.55
2019-05-03T13:59:34.908Z,65.65
2019-05-03T14:00:34.906Z,66.41
2019-05-03T14:01:34.790Z,66.41
2019-05-03T14:02:35.680Z,66.03
2019-05-03T14:03:35.216Z,65.84
2019-05-03T14:04:48.661Z,65.55
2019-05-03T14:05:35.219Z,65.84
2019-05-03T14:06:36.526Z,65.55
2019-05-03T14:07:35.321Z,65.84
2019-05-03T14:08:35.015Z,65.65
2019-05-03T14:09:34.872Z,65.74
2019-05-03T14:10:35.982Z,65.36
2019-05-03T14:11:35.375Z,66.22
2019-05-03T14:12:35.086Z,66.41
2019-05-03T14:13:35.287Z,66.61
2019-05-03T14:14:34.894Z,66.41
2019-05-03T14:15:34.782Z,66.13
2019-05-03T14:16:33.956Z,66.13
2019-05-03T14:17:33.955Z,66.51
2019-05-03T14:18:35.198Z,65.74
2019-05-03T14:19:34.762Z,65.84
2019-05-03T14:20:35.129Z,66.61
2019-05-03T14:21:34.605Z,66.22
2019-05-03T14:22:35.623Z,66.32
2019-05-03T14:23:34.715Z,66.22
2019-05-03T14:24:35.145Z,66.03
2019-05-03T14:25:35.096Z,65.94
2019-05-03T14:26:35.134Z,66.51
2019-05-03T14:27:34.834Z,66.80
2019-05-03T14:28:34.623Z,66.03
2019-05-03T14:29:34.732Z,66.13
2019-05-03T14:30:34.681Z,66.41
2019-05-03T14:31:34.581Z,66.03
2019-05-03T14:32:33.126Z,66.13
2019-05-03T14:33:33.005Z,65.74
2019-05-03T14:34:33.004Z,65.84
2019-05-03T14:35:34.689Z,65.55
2019-05-03T14:36:32.885Z,65.74
2019-05-03T14:37:34.992Z,65.74
2019-05-03T14:38:32.767Z,65.65
2019-05-03T14:39:32.765Z,65.84
2019-05-03T14:40:32.649Z,65.94
2019-05-03T14:41:32.646Z,65.74
2019-05-03T14:42:32.534Z,65.94
2019-05-03T14:43:32.526Z,65.74
2019-05-03T14:44:32.412Z,65.55
2019-05-03T14:45:32.407Z,65.74
2019-05-03T14:46:33.322Z,65.55
2019-05-03T14:47:32.297Z,65.45
2019-05-03T14:48:32.291Z,65.55
2019-05-03T14:49:32.173Z,65.45
2019-05-03T14:50:32.170Z,65.45